Time;durP1;ratioP1;P1;durP2;ratioP2;P2;SDS_P1;SDS_P2;PMS_P1;PMS_P2;Temp;Humidity;BMP_temperature;BMP_pressure;BME280_temperature;BME280_humidity;BME280_pressure;Samples;Min_cycle;Max_cycle;Signal;HPM_P1;HPM_P2
2021/12/04 07:01:54;;;;;;;30.45;3.38;;;9.10;99.90;;;;;;5233772;23;20411;-82
2021/12/04 07:04:28;;;;;;;29.77;3.38;;;9.10;99.90;;;;;;4930035;28;20055;-80
2021/12/04 07:06:55;;;;;;;20.23;3.10;;;9.10;99.90;;;;;;4947563;28;20385;-81
2021/12/04 07:09:22;;;;;;;20.20;2.33;;;9.00;99.90;;;;;;4932565;29;20055;-80
2021/12/04 07:11:48;;;;;;;20.23;2.85;;;9.10;99.90;;;;;;4933372;28;20103;-83
2021/12/04 07:14:15;;;;;;;17.60;2.67;;;9.10;99.90;;;;;;4933113;29;20455;-82
2021/12/04 07:16:43;;;;;;;12.90;2.10;;;9.10;99.90;;;;;;4931362;29;20100;-82
2021/12/04 07:19:10;;;;;;;29.20;2.80;;;9.00;99.90;;;;;;4932494;28;20107;-82
2021/12/04 07:21:37;;;;;;;16.00;2.28;;;9.10;99.90;;;;;;4937215;28;20122;-83
2021/12/04 07:24:04;;;;;;;16.50;3.30;;;9.10;99.90;;;;;;4939057;28;20511;-80
2021/12/04 07:26:31;;;;;;;20.83;3.03;;;9.00;99.90;;;;;;4937653;28;20586;-81
2021/12/04 07:28:58;;;;;;;18.17;3.33;;;9.00;99.90;;;;;;4935794;29;20582;-81
2021/12/04 07:31:25;;;;;;;19.73;2.95;;;9.00;99.90;;;;;;4932722;28;20599;-81
2021/12/04 07:33:52;;;;;;;30.20;3.05;;;9.00;99.90;;;;;;4939650;29;20051;-83
2021/12/04 07:36:20;;;;;;;24.20;2.63;;;9.00;99.90;;;;;;4936098;29;20047;-81
2021/12/04 07:38:47;;;;;;;17.52;2.85;;;9.00;99.90;;;;;;4928322;28;20043;-83
2021/12/04 07:41:14;;;;;;;18.98;3.08;;;9.00;99.90;;;;;;4935992;28;20043;-82
2021/12/04 07:43:42;;;;;;;23.90;3.10;;;9.00;99.90;;;;;;4933948;29;20103;-81
2021/12/04 07:46:09;;;;;;;14.07;2.45;;;9.00;99.90;;;;;;4936095;28;20134;-82
2021/12/04 07:48:36;;;;;;;16.90;2.10;;;9.00;99.90;;;;;;4936294;29;20063;-80
2021/12/04 07:51:04;;;;;;;16.88;2.40;;;9.00;99.90;;;;;;4936411;29;20861;-81
2021/12/04 07:53:32;;;;;;;13.13;2.30;;;8.90;99.90;;;;;;4935683;28;20091;-82
2021/12/04 07:56:00;;;;;;;16.45;2.60;;;9.00;99.90;;;;;;4937510;29;20468;-82
2021/12/04 07:58:27;;;;;;;18.38;2.08;;;8.90;99.90;;;;;;4918796;29;20044;-83
2021/12/04 08:00:56;;;;;;;11.27;2.30;;;8.90;99.90;;;;;;4946706;28;20047;-82
2021/12/04 08:03:23;;;;;;;16.60;2.25;;;8.80;99.90;;;;;;4943809;28;20702;-82
2021/12/04 08:05:51;;;;;;;11.95;2.35;;;8.90;99.90;;;;;;4939876;28;20056;-82
2021/12/04 08:08:18;;;;;;;10.38;1.75;;;8.80;99.90;;;;;;4935344;29;20134;-80
2021/12/04 08:10:45;;;;;;;10.30;1.30;;;8.80;99.90;;;;;;4933417;28;20044;-82
2021/12/04 08:13:12;;;;;;;12.27;1.77;;;8.70;99.90;;;;;;4934376;28;20520;-81
2021/12/04 08:15:39;;;;;;;8.52;1.35;;;8.60;99.90;;;;;;4935163;29;20083;-81
2021/12/04 08:18:11;;;;;;;11.30;1.60;;;8.60;99.90;;;;;;4931366;28;20543;-80
2021/12/04 08:20:38;;;;;;;7.63;1.52;;;8.60;99.90;;;;;;4931834;28;20138;-81
2021/12/04 08:23:06;;;;;;;13.15;2.00;;;8.50;99.90;;;;;;4930507;28;20071;-81
2021/12/04 08:25:35;;;;;;;12.07;1.67;;;8.50;99.90;;;;;;4932257;28;20063;-80
2021/12/04 08:28:04;;;;;;;13.38;1.83;;;8.50;99.90;;;;;;4932461;28;20127;-80
2021/12/04 08:30:34;;;;;;;19.50;2.38;;;8.50;99.90;;;;;;4932412;28;20054;-81
2021/12/04 08:33:01;;;;;;;15.75;2.65;;;8.40;99.90;;;;;;4930173;29;20060;-81
2021/12/04 08:35:31;;;;;;;16.08;2.83;;;8.50;99.90;;;;;;4929804;29;20557;-81
2021/12/04 08:37:58;;;;;;;16.70;2.00;;;8.50;99.90;;;;;;4932361;29;20056;-82
2021/12/04 08:40:29;;;;;;;17.90;3.28;;;8.50;99.90;;;;;;4931368;29;20505;-81
2021/12/04 08:42:56;;;;;;;20.02;2.53;;;8.60;99.90;;;;;;4931577;29;20099;-81
2021/12/04 08:45:23;;;;;;;17.50;2.42;;;8.60;99.90;;;;;;4931375;28;20500;-81
2021/12/04 08:47:50;;;;;;;15.85;1.83;;;8.70;99.90;;;;;;4931226;28;20153;-81
2021/12/04 08:50:21;;;;;;;8.98;1.80;;;8.80;99.90;;;;;;4931426;28;20079;-82
2021/12/04 08:52:48;;;;;;;12.30;2.30;;;8.90;99.90;;;;;;4932213;29;20472;-82
2021/12/04 08:55:17;;;;;;;8.18;1.33;;;8.90;99.90;;;;;;4930423;29;20051;-83
2021/12/04 08:57:44;;;;;;;14.43;2.03;;;8.90;99.90;;;;;;4931319;29;20507;-82
2021/12/04 09:00:20;;;;;;;15.15;1.73;;;8.90;99.90;;;;;;4931826;29;20048;-81
2021/12/04 09:02:47;;;;;;;10.38;1.80;;;9.00;99.90;;;;;;4931150;28;20055;-82
2021/12/04 09:05:16;;;;;;;11.17;2.03;;;9.00;99.90;;;;;;4930950;28;20079;-83
2021/12/04 09:07:44;;;;;;;;;;;9.00;99.90;;;;;;4931912;28;20072;-81
2021/12/04 09:10:12;;;;;;;14.00;1.85;;;9.10;99.90;;;;;;4931047;28;19922;-82
2021/12/04 09:12:40;;;;;;;11.55;1.70;;;9.20;99.90;;;;;;4930631;29;20827;-82
2021/12/04 09:15:11;;;;;;;17.35;2.05;;;9.30;99.90;;;;;;4931133;28;20055;-79
2021/12/04 09:17:37;;;;;;;15.75;2.25;;;9.40;99.90;;;;;;4928277;29;20134;-81
2021/12/04 09:20:06;;;;;;;16.02;2.38;;;9.50;99.90;;;;;;4931114;28;20051;-80
2021/12/04 09:22:35;;;;;;;15.27;2.40;;;9.50;99.90;;;;;;4930609;29;20043;-81
2021/12/04 09:25:10;;;;;;;15.93;2.35;;;9.40;99.90;;;;;;4931733;28;20102;-81
2021/12/04 09:27:46;;;;;;;16.85;2.40;;;9.30;99.90;;;;;;4932119;28;20044;-81
2021/12/04 09:35:31;;;;;;;20.52;2.15;;;9.00;99.90;;;;;;4930398;29;20059;-82
2021/12/04 10:00:46;;;;;;;14.93;2.63;;;8.70;99.90;;;;;;4928592;29;20574;-83
2021/12/04 10:03:42;;;;;;;9.98;1.77;;;8.60;99.90;;;;;;4930116;28;20048;-83
2021/12/04 10:12:16;;;;;;;4.63;1.25;;;8.40;99.90;;;;;;4930861;29;20047;-81
2021/12/04 10:15:26;;;;;;;9.02;0.93;;;8.40;99.90;;;;;;4926390;28;20102;-82
2021/12/04 10:34:50;;;;;;;11.15;2.00;;;8.70;99.90;;;;;;4889468;29;20489;-81
2021/12/04 10:37:27;;;;;;;12.10;1.30;;;8.80;99.90;;;;;;4889309;29;20049;-81
2021/12/04 10:40:05;;;;;;;12.47;1.93;;;9.00;99.90;;;;;;4871449;29;20148;-80
2021/12/04 10:43:07;;;;;;;13.65;1.70;;;9.10;99.90;;;;;;4888300;29;20521;-81
2021/12/04 10:45:41;;;;;;;15.15;2.15;;;9.30;99.90;;;;;;4829475;29;20046;-82
2021/12/04 10:48:14;;;;;;;14.75;2.05;;;9.50;99.90;;;;;;4822767;29;20053;-80
2021/12/04 10:50:50;;;;;;;18.73;2.25;;;9.60;99.90;;;;;;4828108;29;20774;-81
2021/12/04 10:53:21;;;;;;;17.08;2.63;;;9.80;99.90;;;;;;4832050;29;20392;-81
2021/12/04 10:55:54;;;;;;;12.55;2.15;;;9.90;99.90;;;;;;4829250;29;20046;-80
2021/12/04 11:01:20;;;;;;;9.68;1.73;;;9.60;99.90;;;;;;4834225;29;20057;-81
2021/12/04 11:24:26;;;;;;;13.43;2.08;;;8.20;99.90;;;;;;4921626;28;20465;-82
2021/12/04 11:38:50;;;;;;;12.63;2.20;;;8.70;99.90;;;;;;4917682;28;20059;-83
2021/12/04 11:43:21;;;;;;;13.23;2.28;;;8.90;99.90;;;;;;4921670;29;20106;-83
2021/12/04 11:48:37;;;;;;;19.52;3.40;;;9.10;99.90;;;;;;4921967;28;20493;-83
2021/12/04 11:51:10;;;;;;;12.75;2.35;;;9.30;99.90;;;;;;4921731;29;20056;-82
2021/12/04 11:54:11;;;;;;;21.95;2.45;;;9.40;99.90;;;;;;4923666;28;20862;-82
2021/12/04 11:56:38;;;;;;;8.55;2.35;;;9.50;99.90;;;;;;4927409;29;20973;-84
2021/12/04 11:59:07;;;;;;;16.10;2.35;;;9.40;99.90;;;;;;4926738;29;20165;-85
2021/12/04 12:01:38;;;;;;;13.57;1.70;;;9.30;99.90;;;;;;4927095;29;20788;-83
2021/12/04 12:04:09;;;;;;;16.77;2.13;;;9.30;99.90;;;;;;4925723;28;20405;-83
2021/12/04 12:06:42;;;;;;;15.77;2.55;;;9.20;99.90;;;;;;4923344;28;20457;-83
2021/12/04 12:09:14;;;;;;;16.67;2.53;;;9.10;99.90;;;;;;4932603;28;20056;-84
2021/12/04 12:11:54;;;;;;;11.90;1.67;;;9.00;99.90;;;;;;4926033;28;20040;-83
2021/12/04 12:14:37;;;;;;;22.13;3.00;;;8.90;99.90;;;;;;4933092;28;20146;-82
2021/12/04 12:17:05;;;;;;;13.38;2.30;;;8.90;99.90;;;;;;4930495;28;20047;-84
2021/12/04 12:19:43;;;;;;;13.52;2.92;;;8.80;99.90;;;;;;4930890;28;20084;-82
2021/12/04 12:22:47;;;;;;;17.35;2.13;;;8.80;99.90;;;;;;4932815;28;20543;-83
2021/12/04 12:37:17;;;;;;;18.40;1.90;;;9.10;99.90;;;;;;4885955;29;20718;-82
2021/12/04 12:39:58;;;;;;;11.48;2.35;;;9.20;99.90;;;;;;4886158;29;20549;-82
2021/12/04 12:42:32;;;;;;;11.38;1.85;;;9.30;99.90;;;;;;4886195;29;20056;-83
2021/12/04 12:45:34;;;;;;;13.23;1.52;;;9.50;99.90;;;;;;4881617;29;20269;-84
2021/12/04 12:48:07;;;;;;;13.35;1.73;;;9.60;99.90;;;;;;4886871;29;20113;-81
2021/12/04 12:50:40;;;;;;;10.57;1.88;;;9.70;99.90;;;;;;4887471;29;20052;-82
2021/12/04 12:53:27;;;;;;;13.55;2.38;;;9.70;99.90;;;;;;4887629;29;20048;-82
2021/12/04 12:56:10;;;;;;;17.17;2.35;;;9.70;99.90;;;;;;4883296;29;20490;-82
2021/12/04 13:13:30;;;;;;;17.75;2.15;;;9.60;99.90;;;;;;4929145;28;20052;-82
2021/12/04 13:16:05;;;;;;;13.60;2.22;;;9.60;99.90;;;;;;4927156;28;20048;-81
2021/12/04 13:18:35;;;;;;;12.27;1.73;;;9.60;99.90;;;;;;4932140;28;20078;-82
2021/12/04 13:21:08;;;;;;;12.23;2.10;;;9.60;99.90;;;;;;4930899;28;20096;-83
2021/12/04 13:23:37;;;;;;;8.85;1.58;;;9.70;99.90;;;;;;4924242;28;20047;-83
2021/12/04 13:26:11;;;;;;;13.10;2.47;;;9.80;99.90;;;;;;4924974;28;20191;-81
2021/12/04 13:28:46;;;;;;;14.90;2.83;;;9.80;99.90;;;;;;4929749;28;20048;-82
2021/12/04 13:31:17;;;;;;;11.10;2.20;;;9.90;99.90;;;;;;4925122;29;20047;-80
2021/12/04 13:33:46;;;;;;;15.95;1.98;;;9.90;99.90;;;;;;4919946;28;20059;-83
2021/12/04 13:36:17;;;;;;;15.77;1.83;;;9.70;99.90;;;;;;4907975;28;20049;-80
2021/12/04 13:38:44;;;;;;;12.52;2.03;;;9.50;99.90;;;;;;4937810;28;20059;-85
2021/12/04 13:41:12;;;;;;;19.52;3.42;;;9.30;99.90;;;;;;4928029;28;20047;-85
2021/12/04 13:43:39;;;;;;;14.77;2.47;;;9.20;99.90;;;;;;4931518;29;20052;-85
2021/12/04 13:46:06;;;;;;;21.73;3.08;;;9.10;99.90;;;;;;4929281;28;20509;-86
2021/12/04 13:48:34;;;;;;;13.90;1.80;;;9.00;99.90;;;;;;4925854;29;20046;-84
2021/12/04 13:51:02;;;;;;;14.07;2.35;;;8.90;99.90;;;;;;4932573;29;20111;-83
2021/12/04 13:53:32;;;;;;;15.52;1.90;;;8.90;99.90;;;;;;4931275;29;20047;-84
2021/12/04 13:56:05;;;;;;;11.82;2.20;;;8.90;99.90;;;;;;4930485;28;20500;-85
2021/12/04 13:58:54;;;;;;;11.80;1.60;;;8.90;99.90;;;;;;4932226;28;20095;-85
2021/12/04 14:01:22;;;;;;;11.52;1.70;;;8.90;99.90;;;;;;4931297;28;20119;-84
2021/12/04 14:04:00;;;;;;;10.88;1.95;;;8.90;99.90;;;;;;4929105;28;20051;-84
2021/12/04 14:06:27;;;;;;;11.20;1.88;;;9.00;99.90;;;;;;4931064;28;20103;-84
2021/12/04 14:09:06;;;;;;;15.63;1.92;;;9.10;99.90;;;;;;4930166;28;20056;-84
2021/12/04 14:11:36;;;;;;;;;;;9.10;99.90;;;;;;4931526;29;20047;-84
2021/12/04 14:14:19;;;;;;;14.07;2.28;;;9.20;99.90;;;;;;4931463;29;20352;-86
2021/12/04 14:16:51;;;;;;;11.40;2.30;;;9.20;99.90;;;;;;4925424;29;20047;-84
2021/12/04 14:19:27;;;;;;;19.42;1.95;;;9.20;99.90;;;;;;4924891;28;20052;-84
2021/12/04 14:22:01;;;;;;;17.90;2.75;;;9.20;99.90;;;;;;4919773;28;20100;-83
2021/12/04 14:24:48;;;;;;;16.40;2.17;;;9.20;99.90;;;;;;4917112;28;20048;-81
2021/12/04 14:27:22;;;;;;;18.95;2.20;;;9.20;99.90;;;;;;4918854;28;20052;-81
2021/12/04 14:29:52;;;;;;;18.98;2.25;;;9.30;99.90;;;;;;4919167;28;20058;-83
2021/12/04 14:32:25;;;;;;;14.77;2.58;;;9.30;99.90;;;;;;4920360;28;20056;-84
2021/12/04 14:34:58;;;;;;;14.30;1.98;;;9.30;99.90;;;;;;4918999;28;20048;-82
2021/12/04 14:37:25;;;;;;;13.23;2.42;;;9.30;99.90;;;;;;4918717;29;20155;-84
2021/12/04 14:39:53;;;;;;;20.85;2.83;;;9.40;99.90;;;;;;4919798;28;20088;-81
2021/12/04 14:42:27;;;;;;;14.63;2.40;;;9.40;99.90;;;;;;4918809;28;20203;-82
2021/12/04 14:44:57;;;;;;;16.40;2.42;;;9.30;99.90;;;;;;4916706;28;20044;-79
2021/12/04 14:47:35;;;;;;;13.75;1.35;;;9.20;99.90;;;;;;4916210;28;20071;-83
2021/12/04 14:50:05;;;;;;;9.65;1.60;;;9.20;99.90;;;;;;4912946;29;20110;-81
2021/12/04 14:52:34;;;;;;;13.52;1.73;;;9.20;99.90;;;;;;4914300;28;20111;-81
2021/12/04 14:55:24;;;;;;;14.85;2.35;;;9.30;99.90;;;;;;4917215;28;20459;-81
2021/12/04 14:57:52;;;;;;;8.48;1.50;;;9.30;99.90;;;;;;4908658;29;20044;-81
2021/12/04 15:00:28;;;;;;;16.02;1.80;;;9.30;99.90;;;;;;4914050;28;20075;-81
2021/12/04 15:02:59;;;;;;;18.80;2.40;;;9.30;99.90;;;;;;4914954;28;20056;-81
2021/12/04 15:05:41;;;;;;;15.48;1.85;;;9.30;99.90;;;;;;4913251;28;20051;-80
2021/12/04 15:08:23;;;;;;;23.58;2.85;;;9.30;99.90;;;;;;4917125;29;20060;-81
2021/12/04 15:11:16;;;;;;;12.23;2.50;;;9.30;99.90;;;;;;4922007;28;20051;-82
2021/12/04 15:13:52;;;;;;;10.70;1.50;;;9.20;99.90;;;;;;4918547;29;20043;-81
2021/12/04 15:16:38;;;;;;;15.55;1.92;;;9.10;99.90;;;;;;4919616;28;20096;-83
2021/12/04 15:19:19;;;;;;;14.52;1.58;;;9.10;99.90;;;;;;4919476;28;20047;-82
2021/12/04 15:21:52;;;;;;;9.70;1.67;;;9.00;99.90;;;;;;4916181;28;20044;-83
2021/12/04 15:24:24;;;;;;;14.05;1.80;;;9.00;99.90;;;;;;4912437;29;20055;-83
2021/12/04 15:26:55;;;;;;;15.15;2.03;;;9.00;99.90;;;;;;4915681;29;20046;-81
2021/12/04 15:29:25;;;;;;;11.27;2.20;;;8.90;99.90;;;;;;4917444;29;20048;-83
2021/12/04 15:31:54;;;;;;;16.73;2.40;;;8.90;99.90;;;;;;4913963;29;20039;-82
2021/12/04 15:34:53;;;;;;;13.80;1.95;;;8.80;99.90;;;;;;4914923;28;20079;-82
2021/12/04 15:37:29;;;;;;;17.40;2.05;;;8.90;99.90;;;;;;4915075;29;20218;-80
2021/12/04 15:40:00;;;;;;;19.95;2.80;;;8.80;99.90;;;;;;4914631;29;20052;-81
2021/12/04 15:42:49;;;;;;;17.20;2.35;;;8.90;99.90;;;;;;4917263;29;20055;-81
2021/12/04 15:48:18;;;;;;;12.05;1.70;;;8.80;99.90;;;;;;4920785;28;20451;-83
2021/12/04 15:53:11;;;;;;;18.55;2.38;;;8.80;99.90;;;;;;4922810;29;20062;-83
2021/12/04 15:55:49;;;;;;;14.48;2.63;;;8.80;99.90;;;;;;4920495;29;20046;-81
2021/12/04 15:58:40;;;;;;;14.68;2.50;;;8.80;99.90;;;;;;4901735;29;20139;-81
2021/12/04 19:01:37;;;;;;;15.43;1.75;;;7.20;99.90;;;;;;4943313;28;20529;-80
2021/12/04 19:04:07;;;;;;;12.55;1.98;;;7.30;99.90;;;;;;4944539;28;20083;-80
2021/12/04 19:06:38;;;;;;;22.75;3.15;;;7.40;99.90;;;;;;4947061;28;20069;-79
2021/12/04 19:09:11;;;;;;;18.98;2.30;;;7.50;99.90;;;;;;4947027;28;20138;-80
2021/12/04 19:11:38;;;;;;;14.48;2.75;;;7.60;99.90;;;;;;4944921;28;20043;-80
2021/12/04 19:14:05;;;;;;;18.95;2.42;;;7.60;99.90;;;;;;4946683;28;20058;-79
2021/12/04 19:16:33;;;;;;;15.70;1.58;;;7.60;99.90;;;;;;4950651;28;20047;-82
2021/12/04 19:19:01;;;;;;;14.88;2.70;;;7.60;99.90;;;;;;4949114;28;20063;-81
2021/12/04 19:21:28;;;;;;;11.48;2.13;;;7.60;99.90;;;;;;4954223;28;20066;-80
2021/12/04 19:23:58;;;;;;;14.38;2.22;;;7.60;99.90;;;;;;4954090;28;20106;-78
2021/12/04 19:26:25;;;;;;;13.55;2.38;;;7.60;99.90;;;;;;4946176;28;20047;-81
2021/12/04 19:28:53;;;;;;;16.50;2.42;;;7.60;99.90;;;;;;4946278;28;20059;-80
2021/12/04 19:31:22;;;;;;;12.65;1.65;;;7.60;99.90;;;;;;4952379;28;20047;-79
2021/12/04 19:34:20;;;;;;;13.88;1.98;;;7.50;99.90;;;;;;4952361;28;20141;-80
2021/12/04 19:51:08;;;;;;;13.80;2.17;;;7.60;99.90;;;;;;4888628;29;20099;-83
2021/12/04 19:54:31;;;;;;;18.52;2.13;;;7.70;99.90;;;;;;4893517;29;20140;-81
2021/12/04 19:56:48;;;;;;;17.42;2.10;;;7.60;99.90;;;;;;4883359;29;20071;-80
2021/12/04 19:59:17;;;;;;;11.10;1.63;;;7.60;99.90;;;;;;4892559;29;20048;-80
2021/12/04 20:02:04;;;;;;;17.83;2.55;;;7.50;99.90;;;;;;4894721;29;20078;-80
2021/12/04 20:15:03;;;;;;;15.27;1.85;;;7.30;99.90;;;;;;4895235;29;20854;-82
2021/12/04 20:17:31;;;;;;;11.82;1.60;;;7.30;99.90;;;;;;4890509;29;20088;-82
2021/12/04 20:19:58;;;;;;;15.82;2.17;;;7.30;99.90;;;;;;4889056;29;20561;-81
2021/12/04 20:22:27;;;;;;;22.85;2.60;;;7.30;99.90;;;;;;4877785;29;20100;-83
2021/12/04 20:24:58;;;;;;;21.30;3.13;;;7.30;99.90;;;;;;4914796;28;20047;-83
2021/12/04 20:27:34;;;;;;;20.48;2.95;;;7.30;99.90;;;;;;4950143;28;20068;-83
2021/12/04 20:30:15;;;;;;;24.60;2.78;;;7.30;99.90;;;;;;4950911;28;20527;-81
2021/12/04 21:09:27;;;;;;;19.88;3.13;;;7.70;99.90;;;;;;4883280;29;20062;-82
2021/12/04 21:50:32;;;;;;;8.95;1.60;;;7.50;99.90;;;;;;4906627;29;20073;-81
2021/12/04 21:53:00;;;;;;;10.00;1.23;;;7.50;99.90;;;;;;4909916;29;20044;-81
2021/12/04 22:09:11;;;;;;;17.80;3.55;;;7.40;99.90;;;;;;4880497;29;20045;-81
2021/12/04 22:11:56;;;;;;;16.33;2.75;;;7.30;99.90;;;;;;4880590;29;20045;-82
2021/12/04 22:22:47;;;;;;;21.15;3.10;;;7.40;99.90;;;;;;4889615;29;20061;-79
2021/12/04 22:59:04;;;;;;;8.50;0.80;;;6.80;99.90;;;;;;4942468;28;20579;-85
2021/12/04 23:01:40;;;;;;;4.28;0.95;;;6.80;99.90;;;;;;4949477;28;20470;-83
2021/12/04 23:12:55;;;;;;;13.02;1.75;;;6.50;99.90;;;;;;4951256;28;20484;-81
2021/12/04 23:15:28;;;;;;;11.60;1.52;;;6.50;99.90;;;;;;4948676;28;20047;-81
2021/12/04 23:34:36;;;;;;;13.00;1.20;;;6.40;99.90;;;;;;4949783;28;20053;-80
